Terminal Aerodrome Forecast
Issued by NWS Wilmington, OH

Current Version | Previous Version | Text Only | Print | Product List | Glossary Off
Versions: 1 2 3 4 5 6 7 8 9 10 11 12 13 14 15 16 17 18 19

000
FTUS41 KILN 211740
TAFILN
TAF
KILN 211740Z 2118/2218 19009KT P6SM SCT250
     FM212200 21008KT P6SM BKN130
     FM220100 VRB03KT P6SM SCT140
     FM221500 23011G19KT P6SM BKN250=

USA.gov is the U.S. government's official web portal to all federal, state and local government web resources and services.